createdAt,value
2023-02-22T00:01:59.293Z,29.10
2023-02-22T00:04:30.055Z,29.07
2023-02-22T00:07:02.353Z,29.42
2023-02-22T00:09:33.314Z,30.17
2023-02-22T00:12:04.218Z,29.92
2023-02-22T00:14:35.007Z,29.18
2023-02-22T00:17:05.920Z,29.00
2023-02-22T00:19:36.724Z,27.58
2023-02-22T00:22:07.590Z,28.62
2023-02-22T00:24:38.416Z,29.25
2023-02-22T00:27:09.145Z,28.40
2023-02-22T00:29:40.158Z,26.77
2023-02-22T00:32:10.869Z,28.00
2023-02-22T00:34:41.885Z,29.52
2023-02-22T00:37:16.343Z,29.82
2023-02-22T00:39:52.189Z,27.67
2023-02-22T00:42:23.021Z,27.58
2023-02-22T00:44:53.826Z,28.30
2023-02-22T00:47:24.532Z,26.00
2023-02-22T00:49:55.478Z,26.40
2023-02-22T00:52:26.340Z,25.68
2023-02-22T00:54:58.940Z,26.50
2023-02-22T00:57:30.007Z,26.25
2023-02-22T01:00:01.317Z,26.50
2023-02-22T01:02:34.775Z,25.92
2023-02-22T01:05:06.266Z,27.15
2023-02-22T01:07:37.700Z,25.35
2023-02-22T01:10:09.842Z,26.62
2023-02-22T01:12:41.416Z,24.95
2023-02-22T01:15:13.494Z,26.93
2023-02-22T01:17:44.933Z,24.85
2023-02-22T01:20:16.401Z,28.27
2023-02-22T01:22:50.452Z,28.12
2023-02-22T01:25:24.081Z,25.10
2023-02-22T01:27:55.800Z,26.90
2023-02-22T01:30:29.391Z,24.67
2023-02-22T01:33:01.325Z,24.82
2023-02-22T01:35:35.006Z,25.10
2023-02-22T01:38:06.606Z,25.50
2023-02-22T01:40:40.583Z,23.55
2023-02-22T01:43:29.434Z,23.67
2023-02-22T01:46:06.338Z,24.77
2023-02-22T01:51:29.502Z,23.67
2023-02-22T01:54:09.339Z,23.27
2023-02-22T01:56:45.274Z,24.07
2023-02-22T01:59:16.890Z,25.32
2023-02-22T02:01:47.991Z,23.95
2023-02-22T02:04:25.961Z,25.20
2023-02-22T02:06:58.501Z,24.63
2023-02-22T02:09:35.223Z,24.85
2023-02-22T02:14:43.127Z,23.67
2023-02-22T02:17:17.407Z,23.95
2023-02-22T02:20:12.186Z,24.77
2023-02-22T02:23:15.886Z,23.00
2023-02-22T02:25:58.975Z,24.23
2023-02-22T02:28:56.287Z,23.35
2023-02-22T02:31:45.000Z,24.43
2023-02-22T02:34:43.332Z,24.23
2023-02-22T02:37:14.135Z,24.30
2023-02-22T02:39:53.398Z,24.52
2023-02-22T02:42:26.680Z,22.85
2023-02-22T02:45:06.476Z,23.75
2023-02-22T02:47:40.194Z,23.85
2023-02-22T02:50:22.602Z,25.60
2023-02-22T02:52:56.287Z,25.80
2023-02-22T02:55:27.982Z,24.37
2023-02-22T02:58:00.834Z,23.38
2023-02-22T03:00:35.157Z,22.15
2023-02-22T03:03:27.116Z,22.30
2023-02-22T03:06:15.953Z,20.08
2023-02-22T03:08:52.600Z,19.77
2023-02-22T03:11:26.282Z,18.40
2023-02-22T03:14:03.516Z,19.65
2023-02-22T03:16:44.441Z,17.35
2023-02-22T03:19:23.871Z,18.82
2023-02-22T03:22:19.649Z,19.10
2023-02-22T03:25:03.907Z,18.48
2023-02-22T03:27:55.956Z,17.80
2023-02-22T03:30:47.484Z,17.45
2023-02-22T03:33:31.399Z,18.25
2023-02-22T03:36:07.597Z,19.45
2023-02-22T03:38:41.351Z,20.57
2023-02-22T03:41:15.491Z,17.42
2023-02-22T03:43:51.006Z,15.28
2023-02-22T03:50:06.315Z,15.93
2023-02-22T03:52:38.560Z,16.32
2023-02-22T03:55:11.430Z,16.12
2023-02-22T03:57:45.272Z,17.07
2023-02-22T04:00:19.407Z,15.58
2023-02-22T04:02:51.014Z,16.23
2023-02-22T04:05:22.545Z,16.77
2023-02-22T04:07:55.606Z,15.60
2023-02-22T04:10:27.125Z,16.23
2023-02-22T04:13:04.312Z,15.30
2023-02-22T04:15:38.375Z,15.78
2023-02-22T04:18:10.845Z,15.72
2023-02-22T04:20:42.112Z,16.35
2023-02-22T04:23:13.217Z,16.12
2023-02-22T04:25:44.817Z,16.52
2023-02-22T04:28:16.319Z,15.48
2023-02-22T04:30:47.597Z,16.35
2023-02-22T04:33:18.722Z,15.88
2023-02-22T04:35:49.801Z,16.45
2023-02-22T04:38:20.703Z,16.67
2023-02-22T04:40:51.692Z,16.95
2023-02-22T04:43:23.598Z,17.42
2023-02-22T04:45:54.851Z,17.65
2023-02-22T04:48:25.805Z,16.73
2023-02-22T04:50:56.838Z,17.55
2023-02-22T04:53:29.109Z,17.62
2023-02-22T04:56:02.108Z,16.27
2023-02-22T04:58:33.208Z,16.42
2023-02-22T05:01:04.996Z,17.37
2023-02-22T05:03:38.661Z,15.83
2023-02-22T05:06:10.895Z,16.82
2023-02-22T05:08:42.028Z,15.98
2023-02-22T05:11:13.541Z,17.20
2023-02-22T05:13:45.697Z,16.02
2023-02-22T05:16:16.676Z,15.98
2023-02-22T05:18:50.367Z,16.07
2023-02-22T05:21:23.967Z,16.00
2023-02-22T05:23:54.793Z,16.10
2023-02-22T05:26:26.530Z,15.78
2023-02-22T05:28:58.964Z,16.00
2023-02-22T05:31:32.958Z,15.30
2023-02-22T05:34:04.722Z,15.72
2023-02-22T05:36:39.177Z,15.28
2023-02-22T05:39:12.107Z,15.58
2023-02-22T05:41:46.971Z,14.83
2023-02-22T05:44:20.959Z,14.53
2023-02-22T05:46:58.244Z,16.17
2023-02-22T05:49:29.259Z,14.80
2023-02-22T05:52:01.062Z,14.40
2023-02-22T05:54:35.352Z,14.87
2023-02-22T05:57:09.298Z,15.32
2023-02-22T05:59:46.605Z,14.78
2023-02-22T06:02:17.448Z,14.28
2023-02-22T06:04:51.606Z,14.30
2023-02-22T06:07:25.461Z,15.55
2023-02-22T06:09:56.421Z,14.45
2023-02-22T06:12:28.869Z,14.73
2023-02-22T06:15:02.886Z,13.48
2023-02-22T06:17:33.897Z,14.68
2023-02-22T06:20:05.971Z,13.98
2023-02-22T06:22:37.533Z,13.13
2023-02-22T06:25:09.376Z,14.07
2023-02-22T06:30:33.489Z,14.50
2023-02-22T06:33:10.420Z,14.38
2023-02-22T06:35:42.940Z,12.23
2023-02-22T06:38:15.214Z,13.38
2023-02-22T06:40:46.823Z,24.45
2023-02-22T06:43:18.549Z,13.60
2023-02-22T06:45:50.507Z,12.37
2023-02-22T06:48:21.748Z,13.10
2023-02-22T06:50:57.225Z,13.08
2023-02-22T06:53:28.378Z,12.80
2023-02-22T06:55:59.642Z,13.03
2023-02-22T06:58:31.106Z,11.83
2023-02-22T07:01:03.859Z,11.95
2023-02-22T07:03:36.531Z,13.15
2023-02-22T07:06:10.192Z,12.20
2023-02-22T07:08:49.285Z,11.73
2023-02-22T07:11:15.590Z,12.43
2023-02-22T07:13:51.217Z,11.85
2023-02-22T07:16:20.698Z,11.65
2023-02-22T07:18:52.528Z,11.80
2023-02-22T07:21:25.041Z,11.35
2023-02-22T07:23:57.610Z,11.43
2023-02-22T07:26:29.252Z,11.28
2023-02-22T07:29:00.371Z,11.15
2023-02-22T07:31:33.975Z,10.85
2023-02-22T07:34:23.456Z,11.03
2023-02-22T07:36:54.841Z,12.43
2023-02-22T07:39:26.115Z,11.90
2023-02-22T07:41:57.114Z,11.33
2023-02-22T07:44:28.424Z,13.55
2023-02-22T07:47:01.942Z,10.72
2023-02-22T07:49:33.299Z,11.70
2023-02-22T07:52:06.219Z,11.05
2023-02-22T07:54:37.456Z,12.95
2023-02-22T07:57:08.772Z,10.90
2023-02-22T07:59:42.467Z,11.38
2023-02-22T08:02:18.733Z,12.35
2023-02-22T08:04:50.023Z,11.60
2023-02-22T08:07:22.521Z,12.00
2023-02-22T08:09:53.810Z,11.95
2023-02-22T08:12:25.335Z,11.85
2023-02-22T08:14:56.631Z,13.50
2023-02-22T08:17:27.723Z,11.35
2023-02-22T08:19:59.128Z,11.00
2023-02-22T08:22:30.646Z,12.20
2023-02-22T08:25:04.535Z,12.10
2023-02-22T08:27:35.697Z,12.03
2023-02-22T08:30:08.973Z,11.97
2023-02-22T08:32:40.213Z,11.70
2023-02-22T08:35:15.104Z,12.05
2023-02-22T08:37:48.158Z,12.37
2023-02-22T08:40:24.569Z,12.10
2023-02-22T08:42:56.119Z,12.70
2023-02-22T08:45:27.825Z,13.35
2023-02-22T08:47:58.825Z,12.45
2023-02-22T08:50:37.405Z,11.90
2023-02-22T08:53:11.769Z,13.25
2023-02-22T08:55:46.187Z,11.97
2023-02-22T08:58:17.147Z,11.83
2023-02-22T09:00:48.516Z,11.78
2023-02-22T09:03:19.433Z,12.58
2023-02-22T09:05:50.926Z,11.22
2023-02-22T09:08:22.197Z,11.83
2023-02-22T09:10:57.890Z,14.30
2023-02-22T09:13:29.195Z,13.32
2023-02-22T09:16:01.806Z,12.68
2023-02-22T09:18:43.826Z,12.05
2023-02-22T09:21:08.533Z,12.35
2023-02-22T09:23:40.348Z,13.00
2023-02-22T09:26:15.576Z,12.85
2023-02-22T09:28:49.645Z,11.95
2023-02-22T09:31:21.478Z,12.75
2023-02-22T09:33:53.314Z,12.35
2023-02-22T09:36:26.233Z,12.33
2023-02-22T09:38:59.956Z,12.45
2023-02-22T09:41:36.205Z,12.73
2023-02-22T09:44:20.977Z,12.55
2023-02-22T09:46:56.746Z,13.43
2023-02-22T09:49:31.069Z,15.28
2023-02-22T09:52:11.068Z,14.60
2023-02-22T09:54:49.978Z,13.90
2023-02-22T09:57:33.293Z,12.75
2023-02-22T10:00:22.034Z,12.75
2023-02-22T10:03:01.248Z,12.40
2023-02-22T10:09:12.506Z,12.85
2023-02-22T10:14:58.273Z,12.98
2023-02-22T10:17:36.568Z,12.20
2023-02-22T10:20:49.486Z,12.65
2023-02-22T10:23:44.693Z,13.95
2023-02-22T10:26:26.812Z,13.97
2023-02-22T10:29:06.562Z,13.75
2023-02-22T10:31:39.817Z,12.65
2023-02-22T10:34:25.918Z,12.68
2023-02-22T10:37:20.517Z,12.70
2023-02-22T10:39:55.880Z,13.25
2023-02-22T10:42:28.424Z,13.68
2023-02-22T10:45:02.639Z,12.80
2023-02-22T10:47:33.666Z,13.35
2023-02-22T10:50:07.917Z,13.25
2023-02-22T10:52:41.831Z,12.25
2023-02-22T10:55:15.941Z,12.58
2023-02-22T10:57:52.019Z,12.25
2023-02-22T11:00:38.573Z,12.57
2023-02-22T11:03:23.973Z,13.15
2023-02-22T11:05:55.075Z,11.80
2023-02-22T11:08:29.277Z,12.43
2023-02-22T11:11:06.020Z,13.68
2023-02-22T11:16:32.544Z,13.80
2023-02-22T11:19:11.777Z,14.07
2023-02-22T11:21:46.094Z,13.90
2023-02-22T11:26:52.569Z,14.07
2023-02-22T11:29:42.133Z,14.28
2023-02-22T11:32:17.145Z,12.90
2023-02-22T11:34:50.790Z,13.53
2023-02-22T11:37:26.989Z,13.30
2023-02-22T11:40:11.033Z,12.98
2023-02-22T11:42:43.191Z,12.88
2023-02-22T11:45:25.814Z,13.95
2023-02-22T11:48:05.856Z,13.43
2023-02-22T11:50:48.249Z,14.03
2023-02-22T11:53:30.189Z,14.58
2023-02-22T11:56:36.829Z,14.50
2023-02-22T11:59:31.749Z,14.43
2023-02-22T12:02:21.517Z,14.58
2023-02-22T12:05:09.844Z,14.85
2023-02-22T12:08:05.313Z,15.63
2023-02-22T12:10:42.784Z,14.50
2023-02-22T12:13:28.247Z,16.17
2023-02-22T12:16:10.415Z,17.00
2023-02-22T12:19:03.428Z,15.13
2023-02-22T12:21:41.175Z,14.87
2023-02-22T12:24:15.524Z,17.42
2023-02-22T12:26:58.075Z,18.15
2023-02-22T12:29:55.307Z,18.95
2023-02-22T12:32:43.681Z,17.37
2023-02-22T12:35:41.907Z,17.07
2023-02-22T12:38:24.377Z,17.85
2023-02-22T12:41:27.860Z,17.73
2023-02-22T12:44:06.744Z,20.32
2023-02-22T12:47:18.719Z,19.07
2023-02-22T12:49:55.127Z,19.20
2023-02-22T12:52:44.396Z,19.70
2023-02-22T12:58:44.782Z,20.57
2023-02-22T13:01:23.620Z,20.05
2023-02-22T13:04:08.532Z,19.40
2023-02-22T13:06:43.921Z,20.62
2023-02-22T13:09:48.594Z,20.40
2023-02-22T13:12:43.243Z,19.87
2023-02-22T13:15:31.702Z,20.70
2023-02-22T13:18:39.408Z,19.95
2023-02-22T13:21:31.231Z,21.12
2023-02-22T13:24:10.466Z,19.10
2023-02-22T13:26:43.893Z,20.55
2023-02-22T13:29:29.902Z,21.50
2023-02-22T13:32:04.046Z,21.68
2023-02-22T13:34:58.935Z,19.77
2023-02-22T13:37:44.000Z,19.87
2023-02-22T13:40:44.537Z,19.62
2023-02-22T13:44:03.807Z,19.95
2023-02-22T13:47:08.956Z,18.15
2023-02-22T13:49:56.954Z,18.70
2023-02-22T13:52:35.029Z,17.42
2023-02-22T13:55:09.221Z,17.60
2023-02-22T13:57:50.607Z,17.45
2023-02-22T14:00:27.482Z,17.60
2023-02-22T14:03:29.319Z,17.40
2023-02-22T14:06:02.155Z,17.40
2023-02-22T14:08:41.948Z,17.57
2023-02-22T14:11:26.338Z,17.85
2023-02-22T14:14:05.760Z,16.62
2023-02-22T14:16:45.111Z,17.32
2023-02-22T14:19:35.224Z,17.60
2023-02-22T14:22:11.571Z,18.15
2023-02-22T14:24:50.201Z,17.87
2023-02-22T14:27:40.181Z,18.27
2023-02-22T14:30:17.683Z,17.73
2023-02-22T14:33:00.286Z,18.85
2023-02-22T14:35:49.409Z,18.52
2023-02-22T14:38:15.173Z,19.17
2023-02-22T14:40:53.217Z,18.50
2023-02-22T14:43:52.652Z,19.45
2023-02-22T14:46:28.788Z,18.50
2023-02-22T14:49:16.840Z,20.20
2023-02-22T14:51:53.136Z,19.80
2023-02-22T14:54:34.141Z,20.20
2023-02-22T14:57:29.561Z,20.35
2023-02-22T15:06:02.817Z,20.08
2023-02-22T15:06:39.616Z,19.82
2023-02-22T15:08:38.040Z,20.23
2023-02-22T15:11:35.753Z,20.23
2023-02-22T15:17:51.830Z,20.95
2023-02-22T15:23:26.492Z,21.93
2023-02-22T15:25:13.593Z,22.17
2023-02-22T15:27:51.677Z,23.35
2023-02-22T15:39:36.158Z,24.77
2023-02-22T15:42:46.902Z,22.73
2023-02-22T15:45:19.035Z,23.00
2023-02-22T15:50:41.776Z,24.20
2023-02-22T15:53:27.158Z,25.12
2023-02-22T15:56:04.585Z,24.67
2023-02-22T15:58:36.832Z,25.88
2023-02-22T16:01:10.020Z,25.25
2023-02-22T16:03:44.819Z,25.17
2023-02-22T16:06:23.762Z,24.15
2023-02-22T16:08:58.985Z,25.32
2023-02-22T16:11:35.287Z,26.75
2023-02-22T16:14:09.970Z,26.42
2023-02-22T16:16:49.367Z,24.92
2023-02-22T16:19:48.253Z,26.20
2023-02-22T16:22:34.447Z,26.62
2023-02-22T16:25:36.139Z,25.92
2023-02-22T16:28:10.922Z,25.72
2023-02-22T16:30:43.952Z,27.13
2023-02-22T16:33:16.376Z,26.68
2023-02-22T16:35:50.636Z,27.45
2023-02-22T16:38:22.360Z,27.30
2023-02-22T16:40:59.664Z,27.75
2023-02-22T16:43:46.032Z,26.75
2023-02-22T16:46:21.550Z,27.77
2023-02-22T16:48:52.885Z,27.70
2023-02-22T16:51:34.431Z,27.93
2023-02-22T16:54:11.595Z,29.12
2023-02-22T16:56:45.689Z,29.23
2023-02-22T16:59:18.202Z,30.00
2023-02-22T17:01:50.898Z,27.70
2023-02-22T17:04:25.262Z,28.45
2023-02-22T17:06:59.221Z,28.38
2023-02-22T17:09:40.190Z,27.75
2023-02-22T17:12:06.684Z,26.75
2023-02-22T17:14:38.864Z,26.25
2023-02-22T17:17:13.245Z,25.50
2023-02-22T17:19:48.404Z,24.27
2023-02-22T17:22:21.722Z,24.40
2023-02-22T17:24:52.561Z,24.92
2023-02-22T17:27:23.793Z,25.40
2023-02-22T17:29:56.756Z,24.92
2023-02-22T17:32:28.973Z,25.23
2023-02-22T17:35:02.726Z,24.77
2023-02-22T17:37:35.924Z,25.08
2023-02-22T17:40:07.052Z,23.90
2023-02-22T17:42:37.907Z,22.77
2023-02-22T17:45:09.646Z,23.15
2023-02-22T17:47:40.638Z,22.70
2023-02-22T17:50:14.555Z,21.77
2023-02-22T17:52:46.186Z,21.75
2023-02-22T17:55:18.181Z,22.77
2023-02-22T17:57:49.915Z,23.90
2023-02-22T18:00:29.149Z,23.67
2023-02-22T18:02:59.874Z,23.47
2023-02-22T18:05:31.265Z,22.98
2023-02-22T18:08:02.710Z,24.35
2023-02-22T18:10:34.017Z,23.95
2023-02-22T18:13:05.210Z,25.02
2023-02-22T18:15:38.605Z,24.85
2023-02-22T18:18:09.608Z,25.25
2023-02-22T18:20:44.995Z,24.87
2023-02-22T18:23:21.345Z,24.57
2023-02-22T18:28:25.984Z,25.10
2023-02-22T18:30:58.216Z,25.20
2023-02-22T18:33:29.574Z,25.82
2023-02-22T18:36:00.639Z,25.43
2023-02-22T18:38:31.384Z,25.05
2023-02-22T18:41:07.751Z,25.70
2023-02-22T18:43:38.996Z,25.32
2023-02-22T18:46:15.475Z,25.72
2023-02-22T18:48:49.619Z,24.72
2023-02-22T18:51:30.333Z,25.37
2023-02-22T18:54:03.463Z,25.57
2023-02-22T18:56:36.211Z,26.30
2023-02-22T18:59:08.664Z,25.50
2023-02-22T19:01:41.906Z,25.45
2023-02-22T19:04:15.954Z,25.05
2023-02-22T19:06:48.047Z,25.32
2023-02-22T19:09:19.614Z,25.37
2023-02-22T19:11:52.081Z,25.90
2023-02-22T19:14:29.663Z,26.80
2023-02-22T19:17:06.208Z,24.85
2023-02-22T19:19:37.968Z,25.82
2023-02-22T19:22:08.794Z,24.47
2023-02-22T19:24:49.098Z,26.00
2023-02-22T19:27:20.222Z,25.92
2023-02-22T19:30:38.815Z,26.10
2023-02-22T19:33:09.734Z,26.68
2023-02-22T19:35:42.420Z,25.00
2023-02-22T19:38:13.145Z,25.92
2023-02-22T19:40:44.079Z,27.25
2023-02-22T19:43:15.521Z,25.55
2023-02-22T19:45:46.592Z,26.37
2023-02-22T19:48:17.703Z,25.43
2023-02-22T19:50:51.626Z,25.68
2023-02-22T19:53:22.551Z,27.25
2023-02-22T19:55:53.620Z,26.73
2023-02-22T19:58:24.547Z,26.73
2023-02-22T20:00:55.447Z,27.13
2023-02-22T20:03:27.837Z,26.77
2023-02-22T20:06:00.188Z,27.77
2023-02-22T20:08:31.179Z,27.25
2023-02-22T20:11:01.991Z,27.70
2023-02-22T20:13:33.315Z,27.82
2023-02-22T20:16:04.307Z,27.98
2023-02-22T20:18:35.249Z,26.77
2023-02-22T20:21:13.839Z,28.12
2023-02-22T20:23:45.514Z,27.52
2023-02-22T20:26:22.269Z,30.52
2023-02-22T20:28:53.826Z,29.27
2023-02-22T20:31:24.967Z,29.35
2023-02-22T20:34:00.599Z,30.77
2023-02-22T20:36:32.578Z,28.77
2023-02-22T20:39:03.499Z,30.23
2023-02-22T20:41:36.702Z,29.90
2023-02-22T20:44:08.124Z,29.67
2023-02-22T20:46:39.148Z,29.42
2023-02-22T20:49:12.400Z,29.23
2023-02-22T20:51:43.632Z,29.20
2023-02-22T20:54:15.059Z,27.40
2023-02-22T20:56:48.654Z,28.55
2023-02-22T20:59:21.728Z,27.17
2023-02-22T21:01:54.098Z,26.62
2023-02-22T21:04:25.085Z,27.62
2023-02-22T21:06:56.144Z,27.17
2023-02-22T21:09:27.049Z,26.33
2023-02-22T21:11:57.892Z,25.40
2023-02-22T21:14:29.544Z,26.60
2023-02-22T21:17:00.566Z,25.35
2023-02-22T21:19:32.780Z,26.70
2023-02-22T21:22:05.728Z,26.65
2023-02-22T21:24:37.729Z,25.68
2023-02-22T21:27:09.746Z,25.75
2023-02-22T21:29:40.739Z,23.87
2023-02-22T21:32:11.845Z,24.35
2023-02-22T21:34:43.142Z,23.95
2023-02-22T21:37:15.223Z,24.20
2023-02-22T21:39:47.518Z,23.40
2023-02-22T21:42:18.365Z,23.45
2023-02-22T21:44:49.496Z,23.40
2023-02-22T21:47:20.409Z,22.87
2023-02-22T21:49:52.031Z,22.65
2023-02-22T21:52:23.951Z,21.70
2023-02-22T21:54:54.673Z,21.65
2023-02-22T21:57:26.735Z,21.42
2023-02-22T21:59:57.483Z,21.17
2023-02-22T22:02:29.597Z,22.02
2023-02-22T22:05:00.376Z,20.92
2023-02-22T22:07:31.383Z,21.60
2023-02-22T22:10:02.364Z,20.72
2023-02-22T22:12:39.157Z,21.27
2023-02-22T22:15:06.932Z,20.48
2023-02-22T22:17:38.304Z,21.45
2023-02-22T22:20:11.696Z,19.87
2023-02-22T22:22:44.590Z,21.02
2023-02-22T22:25:25.564Z,19.23
2023-02-22T22:27:57.395Z,19.27
2023-02-22T22:30:28.324Z,20.08
2023-02-22T22:32:59.646Z,18.73
2023-02-22T22:35:32.082Z,18.73
2023-02-22T22:38:03.999Z,18.95
2023-02-22T22:40:35.463Z,17.82
2023-02-22T22:43:07.180Z,19.23
2023-02-22T22:45:39.569Z,19.10
2023-02-22T22:48:11.798Z,18.23
2023-02-22T22:50:43.982Z,20.02
2023-02-22T22:53:16.793Z,19.10
2023-02-22T22:55:47.678Z,20.17
2023-02-22T22:58:19.336Z,18.07
2023-02-22T23:00:50.684Z,18.50
2023-02-22T23:03:22.489Z,19.07
2023-02-22T23:05:53.416Z,19.67
2023-02-22T23:08:25.680Z,21.87
2023-02-22T23:10:56.545Z,20.77
2023-02-22T23:13:28.182Z,22.13
2023-02-22T23:15:58.933Z,21.90
2023-02-22T23:18:29.799Z,21.02
2023-02-22T23:21:02.112Z,18.55
2023-02-22T23:23:34.072Z,20.37
2023-02-22T23:26:13.141Z,20.48
2023-02-22T23:28:44.456Z,16.95
2023-02-22T23:31:18.215Z,18.25
2023-02-22T23:33:49.924Z,16.95
2023-02-22T23:36:21.957Z,19.52
2023-02-22T23:38:52.899Z,17.73
2023-02-22T23:41:25.261Z,15.68
2023-02-22T23:43:56.338Z,15.43
2023-02-22T23:46:28.056Z,18.27
2023-02-22T23:49:00.291Z,18.98
2023-02-22T23:51:34.067Z,18.20
2023-02-22T23:54:08.382Z,21.82
2023-02-22T23:56:40.777Z,16.57
2023-02-22T23:59:13.166Z,15.32
